createdAt,value
2019-02-22T00:00:41.146Z,77.22
2019-02-22T00:01:41.144Z,77.31
2019-02-22T00:02:41.121Z,77.39
2019-02-22T00:03:41.120Z,76.99
2019-02-22T00:04:41.149Z,77.13
2019-02-22T00:05:41.189Z,77.36
2019-02-22T00:06:41.497Z,77.08
2019-02-22T00:07:41.272Z,77.07
2019-02-22T00:08:42.195Z,77.20
2019-02-22T00:09:49.174Z,77.34
2019-02-22T00:10:41.454Z,77.29
2019-02-22T00:11:41.106Z,76.79
2019-02-22T00:12:41.206Z,76.86
2019-02-22T00:13:41.352Z,77.13
2019-02-22T00:14:43.707Z,76.90
2019-02-22T00:15:41.030Z,77.23
2019-02-22T00:16:41.030Z,76.96
2019-02-22T00:17:41.047Z,76.96
2019-02-22T00:18:41.053Z,77.31
2019-02-22T00:19:42.074Z,77.26
2019-02-22T00:20:41.339Z,77.35
2019-02-22T00:21:41.080Z,77.15
2019-02-22T00:22:41.080Z,77.57
2019-02-22T00:23:41.053Z,77.08
2019-02-22T00:24:41.114Z,77.48
2019-02-22T00:25:41.320Z,77.44
2019-02-22T00:26:41.112Z,77.44
2019-02-22T00:27:41.123Z,77.52
2019-02-22T00:28:41.121Z,77.54
2019-02-22T00:29:41.329Z,77.12
2019-02-22T00:30:41.143Z,77.70
2019-02-22T00:31:41.142Z,77.41
2019-02-22T00:32:42.556Z,77.32
2019-02-22T00:33:41.214Z,77.44
2019-02-22T00:34:41.190Z,77.71
2019-02-22T00:35:41.272Z,77.53
2019-02-22T00:36:41.244Z,77.77
2019-02-22T00:37:41.189Z,77.54
2019-02-22T00:38:41.215Z,77.68
2019-02-22T00:39:41.025Z,77.77
2019-02-22T00:40:41.399Z,77.94
2019-02-22T00:41:41.011Z,77.50
2019-02-22T00:42:41.024Z,77.92
2019-02-22T00:43:41.865Z,77.44
2019-02-22T00:44:41.055Z,77.71
2019-02-22T00:45:41.036Z,77.50
2019-02-22T00:46:41.048Z,77.75
2019-02-22T00:47:41.068Z,77.64
2019-02-22T00:48:41.108Z,77.83
2019-02-22T00:49:41.105Z,78.17
2019-02-22T00:50:41.078Z,77.59
2019-02-22T00:51:41.087Z,77.66
2019-02-22T00:52:41.067Z,78.23
2019-02-22T00:53:41.096Z,78.02
2019-02-22T00:54:41.138Z,78.11
2019-02-22T00:55:41.116Z,77.59
2019-02-22T00:56:41.160Z,77.70
2019-02-22T00:57:41.150Z,77.60
2019-02-22T00:58:41.118Z,77.76
2019-02-22T00:59:41.140Z,78.09
2019-02-22T01:00:41.185Z,77.96
2019-02-22T01:01:41.186Z,78.11
2019-02-22T01:02:41.159Z,78.04
2019-02-22T01:03:41.192Z,77.96
2019-02-22T01:04:41.221Z,77.72
2019-02-22T01:05:41.187Z,78.07
2019-02-22T01:06:41.455Z,77.90
2019-02-22T01:07:41.442Z,77.81
2019-02-22T01:08:41.387Z,78.04
2019-02-22T01:09:41.207Z,77.92
2019-02-22T01:10:41.071Z,78.48
2019-02-22T01:11:41.046Z,77.98
2019-02-22T01:12:41.057Z,78.41
2019-02-22T01:13:41.244Z,77.89
2019-02-22T01:14:41.093Z,78.10
2019-02-22T01:15:41.073Z,78.21
2019-02-22T01:16:41.046Z,78.44
2019-02-22T01:17:41.075Z,78.54
2019-02-22T01:18:41.084Z,78.19
2019-02-22T01:19:41.101Z,78.11
2019-02-22T01:20:41.289Z,78.20
2019-02-22T01:21:41.117Z,78.16
2019-02-22T01:22:41.720Z,78.24
2019-02-22T01:23:41.107Z,78.24
2019-02-22T01:24:41.153Z,78.74
2019-02-22T01:25:41.149Z,78.22
2019-02-22T01:26:41.120Z,78.77
2019-02-22T01:27:41.342Z,78.73
2019-02-22T01:28:41.357Z,78.70
2019-02-22T01:29:41.407Z,78.68
2019-02-22T01:30:41.387Z,77.89
2019-02-22T01:31:41.373Z,78.05
2019-02-22T01:32:41.397Z,77.83
2019-02-22T01:33:41.405Z,77.40
2019-02-22T01:34:41.393Z,77.80
2019-02-22T01:35:41.389Z,77.73
2019-02-22T01:36:41.405Z,77.72
2019-02-22T01:37:41.438Z,77.48
2019-02-22T01:38:41.433Z,77.64
2019-02-22T01:39:41.607Z,77.66
2019-02-22T01:40:43.959Z,77.38
2019-02-22T01:41:41.830Z,77.71
2019-02-22T01:42:41.503Z,77.79
2019-02-22T01:43:41.683Z,77.88
2019-02-22T01:44:41.478Z,77.90
2019-02-22T01:45:41.459Z,78.06
2019-02-22T01:46:41.482Z,77.92
2019-02-22T01:47:41.687Z,77.77
2019-02-22T01:48:41.491Z,77.88
2019-02-22T01:49:41.715Z,77.66
2019-02-22T01:50:41.505Z,77.72
2019-02-22T01:51:41.371Z,77.60
2019-02-22T01:52:41.314Z,77.89
2019-02-22T01:53:41.331Z,77.51
2019-02-22T01:54:41.338Z,77.45
2019-02-22T01:55:41.574Z,77.56
2019-02-22T01:56:41.349Z,77.56
2019-02-22T01:57:41.561Z,77.69
2019-02-22T01:58:48.708Z,77.49
2019-02-22T01:59:41.377Z,77.64
2019-02-22T02:00:41.393Z,77.65
2019-02-22T02:01:41.403Z,77.39
2019-02-22T02:02:41.403Z,77.49
2019-02-22T02:03:41.380Z,77.86
2019-02-22T02:04:41.435Z,77.46
2019-02-22T02:05:41.426Z,77.39
2019-02-22T02:06:41.462Z,77.75
2019-02-22T02:07:41.438Z,77.71
2019-02-22T02:08:41.477Z,77.42
2019-02-22T02:09:41.636Z,77.47
2019-02-22T02:10:41.634Z,77.45
2019-02-22T02:11:41.473Z,77.59
2019-02-22T02:12:41.512Z,77.49
2019-02-22T02:13:41.513Z,77.86
2019-02-22T02:14:42.915Z,77.91
2019-02-22T02:15:41.525Z,77.46
2019-02-22T02:16:41.497Z,77.48
2019-02-22T02:17:41.711Z,77.89
2019-02-22T02:18:41.520Z,77.58
2019-02-22T02:19:41.377Z,77.77
2019-02-22T02:20:41.349Z,77.56
2019-02-22T02:21:41.341Z,77.78
2019-02-22T02:22:41.376Z,77.49
2019-02-22T02:23:41.345Z,77.79
2019-02-22T02:24:41.355Z,77.58
2019-02-22T02:25:41.383Z,77.82
2019-02-22T02:26:41.390Z,77.89
2019-02-22T02:27:41.392Z,77.63
2019-02-22T02:28:41.575Z,78.01
2019-02-22T02:29:41.484Z,77.42
2019-02-22T02:30:41.407Z,77.87
2019-02-22T02:31:41.625Z,77.61
2019-02-22T02:32:41.397Z,77.78
2019-02-22T02:33:41.680Z,77.61
2019-02-22T02:34:41.423Z,77.36
2019-02-22T02:35:41.432Z,77.86
2019-02-22T02:36:41.641Z,77.60
2019-02-22T02:37:41.475Z,77.56
2019-02-22T02:38:41.457Z,77.66
2019-02-22T02:39:41.448Z,77.47
2019-02-22T02:40:41.448Z,77.66
2019-02-22T02:41:41.500Z,77.80
2019-02-22T02:42:41.693Z,77.74
2019-02-22T02:43:41.502Z,77.50
2019-02-22T02:44:41.540Z,77.65
2019-02-22T02:45:41.501Z,77.77
2019-02-22T02:46:41.510Z,77.57
2019-02-22T02:47:41.518Z,77.96
2019-02-22T02:48:41.561Z,77.65
2019-02-22T02:49:41.545Z,77.60
2019-02-22T02:50:41.537Z,77.71
2019-02-22T02:51:41.528Z,77.49
2019-02-22T02:52:41.575Z,77.41
2019-02-22T02:53:41.570Z,77.83
2019-02-22T02:54:41.599Z,77.58
2019-02-22T02:55:41.594Z,77.88
2019-02-22T02:56:41.579Z,77.65
2019-02-22T02:57:41.601Z,77.43
2019-02-22T02:58:41.605Z,77.50
2019-02-22T02:59:41.821Z,77.53
2019-02-22T03:00:41.600Z,77.42
2019-02-22T03:01:41.616Z,77.38
2019-02-22T03:02:41.634Z,77.48
2019-02-22T03:03:41.630Z,77.32
2019-02-22T03:04:41.701Z,77.63
2019-02-22T03:05:41.853Z,77.80
2019-02-22T03:06:41.656Z,77.74
2019-02-22T03:07:41.689Z,77.21
2019-02-22T03:08:41.679Z,77.50
2019-02-22T03:09:41.752Z,77.68
2019-02-22T03:10:42.310Z,77.39
2019-02-22T03:11:42.121Z,77.34
2019-02-22T03:12:41.930Z,77.49
2019-02-22T03:13:42.135Z,77.36
2019-02-22T03:14:41.932Z,77.30
2019-02-22T03:15:42.161Z,77.44
2019-02-22T03:16:41.943Z,77.32
2019-02-22T03:17:41.937Z,77.07
2019-02-22T03:18:41.936Z,77.14
2019-02-22T03:19:41.967Z,77.13
2019-02-22T03:20:42.161Z,77.44
2019-02-22T03:21:41.994Z,76.99
2019-02-22T03:22:42.026Z,77.06
2019-02-22T03:23:41.999Z,77.35
2019-02-22T03:24:42.033Z,76.96
2019-02-22T03:25:41.998Z,77.41
2019-02-22T03:26:42.029Z,77.09
2019-02-22T03:27:42.085Z,77.26
2019-02-22T03:28:42.021Z,77.23
2019-02-22T03:29:42.044Z,77.33
2019-02-22T03:30:42.061Z,76.93
2019-02-22T03:31:42.066Z,76.97
2019-02-22T03:32:42.057Z,76.89
2019-02-22T03:33:42.147Z,76.77
2019-02-22T03:34:42.117Z,77.02
2019-02-22T03:35:42.052Z,77.05
2019-02-22T03:36:42.093Z,77.19
2019-02-22T03:37:42.273Z,77.26
2019-02-22T03:38:42.103Z,77.22
2019-02-22T03:39:42.128Z,77.08
2019-02-22T03:40:42.106Z,76.77
2019-02-22T03:41:42.299Z,76.70
2019-02-22T03:42:42.116Z,76.75
2019-02-22T03:43:42.136Z,76.81
2019-02-22T03:44:42.176Z,76.82
2019-02-22T03:45:42.136Z,77.32
2019-02-22T03:46:42.372Z,76.87
2019-02-22T03:47:42.172Z,77.26
2019-02-22T03:48:42.172Z,77.00
2019-02-22T03:49:42.201Z,76.98
2019-02-22T03:50:42.227Z,77.04
2019-02-22T03:51:42.383Z,77.24
2019-02-22T03:52:42.225Z,77.29
2019-02-22T03:53:42.221Z,77.32
2019-02-22T03:54:42.255Z,77.27
2019-02-22T03:55:42.241Z,77.04
2019-02-22T03:56:42.243Z,77.25
2019-02-22T03:57:42.229Z,76.94
2019-02-22T03:58:42.453Z,77.06
2019-02-22T03:59:42.464Z,77.33
2019-02-22T04:00:42.481Z,77.03
2019-02-22T04:01:42.475Z,77.36
2019-02-22T04:02:42.513Z,77.03
2019-02-22T04:03:42.523Z,77.39
2019-02-22T04:04:42.531Z,77.33
2019-02-22T04:05:42.512Z,77.21
2019-02-22T04:06:42.522Z,77.26
2019-02-22T04:07:42.510Z,76.89
2019-02-22T04:08:42.523Z,77.22
2019-02-22T04:09:42.515Z,76.92
2019-02-22T04:10:42.547Z,77.03
2019-02-22T04:11:45.944Z,76.95
2019-02-22T04:12:42.544Z,77.21
2019-02-22T04:13:42.597Z,77.09
2019-02-22T04:14:42.556Z,77.05
2019-02-22T04:15:42.600Z,77.32
2019-02-22T04:16:42.593Z,77.08
2019-02-22T04:17:42.658Z,77.02
2019-02-22T04:18:42.618Z,77.27
2019-02-22T04:19:42.594Z,77.13
2019-02-22T04:20:42.394Z,77.42
2019-02-22T04:21:42.438Z,77.32
2019-02-22T04:22:44.474Z,77.31
2019-02-22T04:23:42.462Z,77.41
2019-02-22T04:24:42.434Z,77.09
2019-02-22T04:25:42.457Z,77.37
2019-02-22T04:26:43.063Z,77.38
2019-02-22T04:27:42.468Z,77.38
2019-02-22T04:28:42.483Z,77.44
2019-02-22T04:29:42.470Z,77.20
2019-02-22T04:30:42.474Z,77.22
2019-02-22T04:31:42.502Z,77.50
2019-02-22T04:32:42.533Z,77.20
2019-02-22T04:33:42.552Z,77.45
2019-02-22T04:34:42.529Z,77.59
2019-02-22T04:35:42.527Z,77.57
2019-02-22T04:36:42.537Z,77.16
2019-02-22T04:37:42.521Z,77.26
2019-02-22T04:38:42.562Z,77.59
2019-02-22T04:39:42.553Z,77.51
2019-02-22T04:40:42.574Z,77.55
2019-02-22T04:41:42.559Z,77.27
2019-02-22T04:42:42.574Z,77.36
2019-02-22T04:43:42.590Z,77.58
2019-02-22T04:44:42.599Z,77.65
2019-02-22T04:45:42.601Z,77.49
2019-02-22T04:46:42.601Z,77.31
2019-02-22T04:47:42.628Z,77.26
2019-02-22T04:48:42.622Z,77.24
2019-02-22T04:49:42.603Z,77.34
2019-02-22T04:50:42.611Z,77.55
2019-02-22T04:51:42.431Z,77.50
2019-02-22T04:52:42.848Z,77.34
2019-02-22T04:53:42.434Z,77.34
2019-02-22T04:54:42.530Z,77.58
2019-02-22T04:55:42.463Z,77.67
2019-02-22T04:56:42.474Z,77.67
2019-02-22T04:57:42.499Z,77.54
2019-02-22T04:58:42.730Z,77.67
2019-02-22T04:59:42.476Z,77.22
2019-02-22T05:00:42.502Z,77.72
2019-02-22T05:01:42.500Z,77.68
2019-02-22T05:02:42.510Z,77.56
2019-02-22T05:03:42.568Z,77.53
2019-02-22T05:04:42.538Z,77.46
2019-02-22T05:05:42.566Z,77.30
2019-02-22T05:06:42.530Z,77.36
2019-02-22T05:07:42.598Z,77.69
2019-02-22T05:08:42.550Z,77.38
2019-02-22T05:09:42.586Z,77.54
2019-02-22T05:10:42.562Z,77.64
2019-02-22T05:11:42.573Z,77.74
2019-02-22T05:12:42.594Z,77.64
2019-02-22T05:13:42.596Z,77.76
2019-02-22T05:14:42.618Z,77.72
2019-02-22T05:15:42.605Z,77.82
2019-02-22T05:16:42.611Z,77.28
2019-02-22T05:17:42.665Z,77.38
2019-02-22T05:18:42.643Z,77.31
2019-02-22T05:19:42.641Z,77.29
2019-02-22T05:20:42.645Z,77.37
2019-02-22T05:21:42.454Z,77.63
2019-02-22T05:22:42.672Z,77.80
2019-02-22T05:23:42.467Z,77.46
2019-02-22T05:24:42.468Z,77.40
2019-02-22T05:25:42.488Z,77.38
2019-02-22T05:26:42.671Z,77.78
2019-02-22T05:27:42.507Z,77.43
2019-02-22T05:28:42.501Z,77.46
2019-02-22T05:29:42.516Z,77.60
2019-02-22T05:30:42.514Z,77.72
2019-02-22T05:31:42.504Z,77.27
2019-02-22T05:32:42.525Z,77.53
2019-02-22T05:33:42.563Z,77.25
2019-02-22T05:34:42.594Z,77.27
2019-02-22T05:35:42.543Z,77.79
2019-02-22T05:36:44.239Z,77.27
2019-02-22T05:37:42.565Z,77.49
2019-02-22T05:38:42.765Z,77.80
2019-02-22T05:39:42.607Z,77.49
2019-02-22T05:40:42.608Z,77.83
2019-02-22T05:41:42.615Z,77.51
2019-02-22T05:42:42.589Z,77.81
2019-02-22T05:43:42.794Z,77.40
2019-02-22T05:44:42.610Z,77.62
2019-02-22T05:45:42.623Z,77.56
2019-02-22T05:46:42.646Z,77.45
2019-02-22T05:47:42.633Z,77.55
2019-02-22T05:48:42.640Z,77.54
2019-02-22T05:49:42.646Z,77.69
2019-02-22T05:50:42.665Z,77.52
2019-02-22T05:51:42.884Z,77.59
2019-02-22T05:52:42.469Z,77.86
2019-02-22T05:53:42.534Z,77.64
2019-02-22T05:54:42.664Z,77.35
2019-02-22T05:55:44.329Z,77.73
2019-02-22T05:56:42.499Z,77.45
2019-02-22T05:57:42.714Z,77.62
2019-02-22T05:58:42.531Z,77.42
2019-02-22T05:59:42.520Z,77.81
2019-02-22T06:00:42.513Z,77.90
2019-02-22T06:01:42.523Z,77.39
2019-02-22T06:02:42.827Z,77.74
2019-02-22T06:03:42.536Z,77.68
2019-02-22T06:04:42.539Z,77.80
2019-02-22T06:05:42.572Z,77.55
2019-02-22T06:06:42.590Z,77.57
2019-02-22T06:07:42.621Z,77.68
2019-02-22T06:08:42.597Z,77.65
2019-02-22T06:09:42.605Z,77.34
2019-02-22T06:10:42.815Z,77.87
2019-02-22T06:11:42.638Z,77.86
2019-02-22T06:12:42.612Z,77.63
2019-02-22T06:13:42.649Z,77.37
2019-02-22T06:14:43.042Z,77.74
2019-02-22T06:15:42.632Z,77.56
2019-02-22T06:16:42.656Z,77.88
2019-02-22T06:17:42.864Z,77.86
2019-02-22T06:18:42.720Z,77.56
2019-02-22T06:19:42.666Z,77.42
2019-02-22T06:20:42.681Z,77.58
2019-02-22T06:21:42.700Z,77.48
2019-02-22T06:22:42.705Z,77.93
2019-02-22T06:23:42.485Z,77.47
2019-02-22T06:24:42.493Z,77.63
2019-02-22T06:25:42.516Z,77.93
2019-02-22T06:26:42.731Z,77.35
2019-02-22T06:27:42.500Z,77.54
2019-02-22T06:28:42.535Z,77.38
2019-02-22T06:29:42.582Z,77.78
2019-02-22T06:30:42.593Z,77.54
2019-02-22T06:31:42.557Z,77.36
2019-02-22T06:32:42.654Z,77.94
2019-02-22T06:33:42.553Z,77.45
2019-02-22T06:34:42.577Z,77.71
2019-02-22T06:35:42.588Z,77.48
2019-02-22T06:36:42.599Z,77.33
2019-02-22T06:37:42.638Z,77.20
2019-02-22T06:38:42.844Z,77.30
2019-02-22T06:39:42.629Z,77.16
2019-02-22T06:40:43.035Z,77.07
2019-02-22T06:41:42.619Z,77.33
2019-02-22T06:42:45.709Z,77.50
2019-02-22T06:43:42.725Z,77.21
2019-02-22T06:44:42.679Z,77.25
2019-02-22T06:45:42.639Z,77.40
2019-02-22T06:46:42.661Z,77.10
2019-02-22T06:47:42.644Z,77.23
2019-02-22T06:48:42.660Z,77.09
2019-02-22T06:49:44.508Z,77.50
2019-02-22T06:50:42.714Z,77.20
2019-02-22T06:51:42.664Z,77.35
2019-02-22T06:52:42.705Z,77.43
2019-02-22T06:53:42.492Z,77.35
2019-02-22T06:54:42.565Z,77.10
2019-02-22T06:55:42.543Z,77.47
2019-02-22T06:56:42.562Z,77.37
2019-02-22T06:57:42.534Z,76.96
2019-02-22T06:58:42.537Z,77.05
2019-02-22T06:59:42.536Z,76.99
2019-02-22T07:00:42.579Z,76.99
2019-02-22T07:01:42.576Z,76.77
2019-02-22T07:02:42.836Z,76.53
2019-02-22T07:03:42.812Z,76.37
2019-02-22T07:04:42.557Z,76.60
2019-02-22T07:05:42.627Z,76.39
2019-02-22T07:06:42.775Z,76.41
2019-02-22T07:07:42.687Z,76.64
2019-02-22T07:08:42.618Z,76.56
2019-02-22T07:09:42.624Z,76.46
2019-02-22T07:10:43.036Z,76.51
2019-02-22T07:11:42.645Z,76.54
2019-02-22T07:12:42.640Z,76.68
2019-02-22T07:13:42.902Z,76.42
2019-02-22T07:14:42.666Z,76.60
2019-02-22T07:15:42.669Z,76.61
2019-02-22T07:16:42.663Z,76.23
2019-02-22T07:17:42.647Z,75.96
2019-02-22T07:18:42.726Z,75.88
2019-02-22T07:19:42.740Z,75.81
2019-02-22T07:20:42.903Z,75.70
2019-02-22T07:21:52.057Z,75.84
2019-02-22T07:22:42.913Z,75.24
2019-02-22T07:23:42.716Z,74.62
2019-02-22T07:24:42.543Z,74.52
2019-02-22T07:25:42.576Z,74.31
2019-02-22T07:26:42.541Z,74.43
2019-02-22T07:27:42.555Z,74.10
2019-02-22T07:28:42.777Z,73.92
2019-02-22T07:29:42.764Z,73.83
2019-02-22T07:30:42.563Z,74.01
2019-02-22T07:31:42.639Z,73.70
2019-02-22T07:32:42.649Z,73.34
2019-02-22T07:33:42.613Z,73.00
2019-02-22T07:34:42.641Z,72.84
2019-02-22T07:35:42.616Z,72.34
2019-02-22T07:36:42.679Z,71.73
2019-02-22T07:37:43.253Z,71.53
2019-02-22T07:38:42.810Z,71.30
2019-02-22T07:39:42.647Z,71.21
2019-02-22T07:40:43.053Z,71.17
2019-02-22T07:41:42.650Z,71.04
2019-02-22T07:42:42.689Z,70.95
2019-02-22T07:43:42.664Z,70.91
2019-02-22T07:44:42.679Z,71.05
2019-02-22T07:45:42.664Z,70.89
2019-02-22T07:46:42.706Z,71.10
2019-02-22T07:47:42.674Z,70.99
2019-02-22T07:48:42.713Z,70.79
2019-02-22T07:49:42.737Z,70.87
2019-02-22T07:50:43.108Z,71.46
2019-02-22T07:51:42.948Z,71.82
2019-02-22T07:52:45.213Z,71.90
2019-02-22T07:53:42.734Z,71.82
2019-02-22T07:54:42.567Z,71.95
2019-02-22T07:55:42.610Z,71.94
2019-02-22T07:56:42.764Z,71.84
2019-02-22T07:57:42.545Z,72.07
2019-02-22T07:58:42.561Z,71.84
2019-02-22T07:59:42.590Z,71.24
2019-02-22T08:00:42.621Z,70.83
2019-02-22T08:01:47.310Z,70.16
2019-02-22T08:02:42.602Z,69.45
2019-02-22T08:03:42.612Z,69.33
2019-02-22T08:04:42.631Z,68.78
2019-02-22T08:05:43.234Z,69.21
2019-02-22T08:06:42.698Z,68.47
2019-02-22T08:07:42.715Z,68.38
2019-02-22T08:08:42.637Z,68.34
2019-02-22T08:09:42.644Z,68.14
2019-02-22T08:10:42.656Z,68.40
2019-02-22T08:11:42.689Z,68.37
2019-02-22T08:12:42.692Z,68.21
2019-02-22T08:13:42.731Z,68.87
2019-02-22T08:14:42.667Z,68.94
2019-02-22T08:15:42.721Z,68.15
2019-02-22T08:16:42.718Z,67.29
2019-02-22T08:17:42.720Z,67.27
2019-02-22T08:18:42.725Z,67.46
2019-02-22T08:19:42.715Z,67.52
2019-02-22T08:20:42.722Z,68.17
2019-02-22T08:21:42.741Z,68.12
2019-02-22T08:22:43.344Z,69.04
2019-02-22T08:23:43.594Z,68.30
2019-02-22T08:24:42.787Z,67.67
2019-02-22T08:25:42.538Z,68.23
2019-02-22T08:26:42.963Z,68.21
2019-02-22T08:27:53.173Z,68.90
2019-02-22T08:28:42.591Z,68.19
2019-02-22T08:29:42.624Z,68.05
2019-02-22T08:30:42.609Z,67.41
2019-02-22T08:31:42.659Z,67.53
2019-02-22T08:32:42.615Z,67.39
2019-02-22T08:33:42.628Z,68.11
2019-02-22T08:34:42.659Z,68.66
2019-02-22T08:35:42.649Z,68.43
2019-02-22T08:36:42.669Z,68.65
2019-02-22T08:37:42.649Z,68.27
2019-02-22T08:38:42.661Z,68.36
2019-02-22T08:39:42.672Z,69.09
2019-02-22T08:40:42.698Z,69.21
2019-02-22T08:41:42.695Z,68.96
2019-02-22T08:42:42.733Z,68.75
2019-02-22T08:43:42.716Z,69.08
2019-02-22T08:44:42.699Z,68.74
2019-02-22T08:45:42.728Z,69.40
2019-02-22T08:46:42.730Z,68.80
2019-02-22T08:47:42.731Z,68.32
2019-02-22T08:48:42.754Z,68.46
2019-02-22T08:49:42.736Z,68.05
2019-02-22T08:50:42.945Z,67.80
2019-02-22T08:51:42.764Z,68.49
2019-02-22T08:52:42.795Z,68.20
2019-02-22T08:53:42.778Z,68.91
2019-02-22T08:54:47.201Z,68.95
2019-02-22T08:55:42.782Z,69.00
2019-02-22T08:56:43.197Z,68.79
2019-02-22T08:57:42.638Z,68.54
2019-02-22T08:58:42.616Z,69.06
2019-02-22T08:59:42.667Z,69.09
2019-02-22T09:00:42.627Z,69.02
2019-02-22T09:01:42.815Z,68.67
2019-02-22T09:02:43.249Z,68.72
2019-02-22T09:03:50.638Z,68.70
2019-02-22T09:04:42.682Z,69.07
2019-02-22T09:05:42.732Z,68.78
2019-02-22T09:06:42.672Z,69.34
2019-02-22T09:07:43.048Z,69.01
2019-02-22T09:08:42.674Z,68.98
2019-02-22T09:09:42.709Z,69.33
2019-02-22T09:10:43.094Z,69.17
2019-02-22T09:11:42.715Z,69.20
2019-02-22T09:12:42.698Z,69.45
2019-02-22T09:13:43.734Z,69.20
2019-02-22T09:14:42.710Z,68.97
2019-02-22T09:15:43.569Z,68.96
2019-02-22T09:16:42.780Z,68.81
2019-02-22T09:17:42.749Z,68.83
2019-02-22T09:18:42.770Z,69.08
2019-02-22T09:19:42.755Z,69.63
2019-02-22T09:20:42.803Z,69.71
2019-02-22T09:21:42.803Z,70.29
2019-02-22T09:22:42.774Z,70.38
2019-02-22T09:23:42.804Z,69.82
2019-02-22T09:24:42.787Z,70.00
2019-02-22T09:25:42.794Z,69.68
2019-02-22T09:26:42.841Z,69.68
2019-02-22T09:27:42.635Z,69.92
2019-02-22T09:28:42.632Z,69.45
2019-02-22T09:29:42.616Z,69.39
2019-02-22T09:30:42.613Z,69.87
2019-02-22T09:31:42.642Z,69.95
2019-02-22T09:32:42.652Z,69.69
2019-02-22T09:33:42.640Z,69.74
2019-02-22T09:34:42.662Z,69.71
2019-02-22T09:35:42.871Z,69.69
2019-02-22T09:36:42.714Z,69.62
2019-02-22T09:37:42.749Z,69.53
2019-02-22T09:38:42.696Z,69.40
2019-02-22T09:39:42.711Z,69.79
2019-02-22T09:40:42.722Z,69.87
2019-02-22T09:41:42.740Z,70.16
2019-02-22T09:42:42.917Z,70.12
2019-02-22T09:43:42.723Z,70.44
2019-02-22T09:44:42.734Z,70.46
2019-02-22T09:45:42.756Z,70.94
2019-02-22T09:46:42.745Z,71.13
2019-02-22T09:47:42.756Z,70.75
2019-02-22T09:48:42.788Z,70.55
2019-02-22T09:49:42.772Z,70.46
2019-02-22T09:50:43.005Z,70.05
2019-02-22T09:51:42.805Z,69.70
2019-02-22T09:52:42.780Z,70.17
2019-02-22T09:53:42.825Z,70.36
2019-02-22T09:54:42.791Z,70.06
2019-02-22T09:55:42.801Z,69.65
2019-02-22T09:56:42.842Z,69.43
2019-02-22T09:57:42.834Z,68.82
2019-02-22T09:58:42.829Z,68.57
2019-02-22T09:59:42.846Z,68.44
2019-02-22T10:00:42.836Z,68.49
2019-02-22T10:01:42.838Z,68.42
2019-02-22T10:02:44.894Z,68.30
2019-02-22T10:03:42.875Z,68.64
2019-02-22T10:04:54.248Z,68.32
2019-02-22T10:05:42.861Z,68.02
2019-02-22T10:06:42.902Z,68.08
2019-02-22T10:07:42.906Z,67.80
2019-02-22T10:08:42.937Z,67.58
2019-02-22T10:09:42.948Z,67.48
2019-02-22T10:10:42.925Z,67.48
2019-02-22T10:11:42.928Z,67.14
2019-02-22T10:12:42.772Z,67.37
2019-02-22T10:13:42.723Z,67.00
2019-02-22T10:14:42.761Z,67.21
2019-02-22T10:15:42.967Z,66.61
2019-02-22T10:16:42.768Z,65.83
2019-02-22T10:17:42.763Z,65.89
2019-02-22T10:18:42.771Z,64.69
2019-02-22T10:19:42.798Z,64.59
2019-02-22T10:20:42.775Z,64.73
2019-02-22T10:21:42.812Z,65.21
2019-02-22T10:22:42.806Z,64.53
2019-02-22T10:23:42.835Z,64.21
2019-02-22T10:24:42.847Z,63.94
2019-02-22T10:25:42.827Z,63.77
2019-02-22T10:26:42.845Z,63.40
2019-02-22T10:27:42.857Z,62.84
2019-02-22T10:28:42.868Z,62.51
2019-02-22T10:29:42.867Z,62.40
2019-02-22T10:30:42.867Z,63.13
2019-02-22T10:31:42.885Z,62.16
2019-02-22T10:32:43.080Z,61.91
2019-02-22T10:33:42.898Z,61.03
2019-02-22T10:34:42.897Z,61.54
2019-02-22T10:35:42.947Z,61.66
2019-02-22T10:36:45.372Z,62.99
2019-02-22T10:37:42.915Z,62.28
2019-02-22T10:38:42.955Z,62.49
2019-02-22T10:39:42.952Z,62.24
2019-02-22T10:40:42.963Z,61.04
2019-02-22T10:41:42.935Z,61.70
2019-02-22T10:42:42.953Z,61.61
2019-02-22T10:43:42.957Z,61.20
2019-02-22T10:44:42.803Z,61.25
2019-02-22T10:45:42.980Z,60.88
2019-02-22T10:46:42.771Z,60.66
2019-02-22T10:47:42.808Z,60.78
2019-02-22T10:48:42.773Z,61.34
2019-02-22T10:49:42.812Z,61.01
2019-02-22T10:50:42.839Z,60.70
2019-02-22T10:51:42.841Z,61.07
2019-02-22T10:52:42.839Z,61.46
2019-02-22T10:53:42.834Z,62.42
2019-02-22T10:54:42.836Z,61.58
2019-02-22T10:55:42.852Z,61.03
2019-02-22T10:56:42.871Z,60.42
2019-02-22T10:57:42.851Z,60.94
2019-02-22T10:58:42.896Z,60.60
2019-02-22T10:59:42.875Z,61.57
2019-02-22T11:00:42.864Z,61.12
2019-02-22T11:01:42.905Z,60.65
2019-02-22T11:02:42.900Z,61.33
2019-02-22T11:03:42.899Z,60.33
2019-02-22T11:04:42.934Z,60.24
2019-02-22T11:05:42.897Z,60.57
2019-02-22T11:06:42.927Z,60.02
2019-02-22T11:07:42.952Z,59.55
2019-02-22T11:08:42.963Z,60.04
2019-02-22T11:09:42.927Z,59.65
2019-02-22T11:10:42.948Z,60.07
2019-02-22T11:11:42.966Z,60.42
2019-02-22T11:12:43.010Z,60.04
2019-02-22T11:13:42.974Z,59.78
2019-02-22T11:14:42.805Z,60.45
2019-02-22T11:15:42.789Z,60.13
2019-02-22T11:16:42.797Z,59.89
2019-02-22T11:17:42.796Z,59.91
2019-02-22T11:18:42.815Z,59.70
2019-02-22T11:19:42.818Z,59.70
2019-02-22T11:20:42.829Z,59.55
2019-02-22T11:21:42.815Z,59.13
2019-02-22T11:22:42.840Z,59.31
2019-02-22T11:23:42.935Z,60.32
2019-02-22T11:24:42.849Z,60.01
2019-02-22T11:25:42.879Z,60.38
2019-02-22T11:26:42.867Z,61.05
2019-02-22T11:27:42.871Z,62.26
2019-02-22T11:28:42.896Z,62.35
2019-02-22T11:29:42.907Z,62.19
2019-02-22T11:30:43.310Z,62.27
2019-02-22T11:31:42.915Z,62.23
2019-02-22T11:32:42.933Z,62.31
2019-02-22T11:33:42.913Z,62.03
2019-02-22T11:34:42.965Z,61.66
2019-02-22T11:35:42.937Z,61.92
2019-02-22T11:36:42.937Z,61.72
2019-02-22T11:37:42.985Z,61.28
2019-02-22T11:38:42.979Z,61.26
2019-02-22T11:39:42.939Z,61.11
2019-02-22T11:40:42.968Z,62.23
2019-02-22T11:41:44.402Z,62.30
2019-02-22T11:42:43.006Z,62.50
2019-02-22T11:43:43.041Z,63.08
2019-02-22T11:44:42.987Z,62.64
2019-02-22T11:45:42.782Z,61.93
2019-02-22T11:46:42.823Z,62.96
2019-02-22T11:47:42.796Z,62.79
2019-02-22T11:48:43.441Z,63.18
2019-02-22T11:49:42.883Z,63.03
2019-02-22T11:50:42.817Z,63.24
2019-02-22T11:51:42.847Z,64.12
2019-02-22T11:52:42.864Z,64.14
2019-02-22T11:53:42.851Z,64.69
2019-02-22T11:54:42.863Z,64.78
2019-02-22T11:55:42.899Z,64.64
2019-02-22T11:56:42.883Z,65.74
2019-02-22T11:57:42.909Z,66.20
2019-02-22T11:58:42.877Z,65.86
2019-02-22T11:59:42.903Z,66.67
2019-02-22T12:00:42.924Z,66.94
2019-02-22T12:01:42.939Z,66.93
2019-02-22T12:02:45.128Z,66.82
2019-02-22T12:03:42.945Z,66.91
2019-02-22T12:04:42.945Z,67.54
2019-02-22T12:05:42.940Z,67.03
2019-02-22T12:06:42.966Z,67.21
2019-02-22T12:07:42.986Z,67.64
2019-02-22T12:08:42.980Z,67.37
2019-02-22T12:09:42.976Z,67.15
2019-02-22T12:10:42.961Z,66.87
2019-02-22T12:11:42.991Z,66.44
2019-02-22T12:12:43.043Z,66.00
2019-02-22T12:13:43.044Z,66.60
2019-02-22T12:14:51.157Z,65.91
2019-02-22T12:15:42.808Z,66.52
2019-02-22T12:16:42.813Z,66.74
2019-02-22T12:17:42.845Z,65.62
2019-02-22T12:18:42.852Z,65.71
2019-02-22T12:19:42.880Z,64.57
2019-02-22T12:20:42.842Z,64.19
2019-02-22T12:21:42.853Z,63.38
2019-02-22T12:22:42.875Z,63.59
2019-02-22T12:23:42.927Z,62.07
2019-02-22T12:24:42.895Z,62.10
2019-02-22T12:25:44.572Z,61.33
2019-02-22T12:26:42.894Z,61.14
2019-02-22T12:27:42.909Z,61.58
2019-02-22T12:28:42.906Z,59.60
2019-02-22T12:29:42.928Z,59.62
2019-02-22T12:30:42.952Z,58.25
2019-02-22T12:31:43.009Z,57.63
2019-02-22T12:32:42.934Z,58.02
2019-02-22T12:33:42.989Z,56.71
2019-02-22T12:34:42.954Z,57.14
2019-02-22T12:35:42.944Z,56.65
2019-02-22T12:36:42.967Z,57.18
2019-02-22T12:37:42.976Z,56.57
2019-02-22T12:38:43.022Z,57.13
2019-02-22T12:39:43.007Z,57.88
2019-02-22T12:40:43.042Z,59.30
2019-02-22T12:41:43.212Z,57.01
2019-02-22T12:42:43.226Z,56.69
2019-02-22T12:43:43.025Z,57.64
2019-02-22T12:44:43.013Z,58.26
2019-02-22T12:45:43.037Z,57.56
2019-02-22T12:46:42.861Z,57.47
2019-02-22T12:47:42.839Z,56.31
2019-02-22T12:48:42.869Z,58.23
2019-02-22T12:49:42.898Z,58.07
2019-02-22T12:50:42.923Z,56.17
2019-02-22T12:51:42.858Z,55.30
2019-02-22T12:52:42.992Z,55.86